Aviation Digital Data Service (ADDS)

Output produced by METARs form (2341 UTC 16 October 2017)
found at http://www.aviationweather.gov/adds/metars/
 
KMDT 162256Z 32007KT 10SM FEW070 14/00 A3014 RMK AO2 SLP207 T01390000 $
KMDT 162156Z 31014KT 10SM FEW070 16/01 A3012 RMK AO2 SLP198 T01560006 $
KMDT 162056Z 32013KT 10SM FEW055 17/01 A3010 RMK AO2 SLP194 T01670006 53005 $
KMDT 161956Z 33009KT 10SM FEW055 17/02 A3009 RMK AO2 SLP190 T01720017 $
KMDT 161856Z 35015G20KT 10SM FEW055 FEW250 17/02 A3009 RMK AO2 SLP188 T01720022 $
KMDT 161756Z 34011G19KT 10SM FEW042 SCT250 16/03 A3009 RMK AO2 SLP189 T01610033 10161 20128 58002 $
KMDT 161656Z 34017G20KT 10SM SCT042 BKN250 14/04 A3010 RMK AO2 SLP194 T01440039 $
KMDT 161556Z 32013G17KT 10SM BKN041 BKN250 14/05 A3009 RMK AO2 SLP190 T01390050 $
KMDT 161456Z 33010KT 10SM OVC040 13/06 A3009 RMK AO2 SLP191 T01330056 53020
KMDT 161356Z 36011KT 10SM OVC036 13/06 A3007 RMK AO2 SLP184 T01330056
KMDT 161256Z 31015KT 10SM SCT060 13/07 A3005 RMK AO2 SLP175 T01330067
KMDT 161156Z 31011KT 10SM BKN060 13/07 A3003 RMK AO2 SLP170 70003 T01330067 10172 20133 53035
KMDT 161056Z 31013KT 10SM BKN060 14/07 A2999 RMK AO2 SLP156 T01440072
KMDT 160956Z 31011KT 10SM OVC041 16/11 A2996 RMK AO2 SLP144 T01610111
KMDT 160856Z 32012KT 10SM OVC150 16/12 A2993 RMK AO2 SLP134 T01610122 53001
KMDT 160756Z 32014KT 10SM OVC140 17/12 A2992 RMK AO2 SLP131 T01670117
KMDT 160656Z 28004KT 10SM FEW080 OVC120 17/15 A2992 RMK AO2 SLP131 T01670150
KMDT 160556Z 29005KT 10SM OVC080 17/14 A2992 RMK AO2 RAE49 SLP132 P0000 60003 T01720144 10228 20172 51022
KMDT 160456Z 31006KT 10SM -RA FEW050 OVC080 17/14 A2990 RMK AO2 PK WND 30026/0402 SLP125 P0000 T01720144 402500167
KMDT 160356Z 30010KT 9SM -RA FEW015 BKN035 OVC070 19/18 A2988 RMK AO2 PRESRR SLP119 P0003 T01890183
KMDT 160256Z 31011KT 8SM -RA FEW022 SCT027 OVC046 20/19 A2986 RMK AO2 PK WND 31027/0228 WSHFT 0221 RAB35 SLP111 P0000 60000 T02000189 53016
KMDT 160235Z 31015G27KT 10SM -RA BKN021 BKN070 OVC085 22/19 A2985 RMK AO2 PK WND 31027/0228 WSHFT 0221 RAB35 P0000 T02220189
KMDT 160156Z 20012G18KT 120V240 10SM BKN080 BKN095 22/18 A2980 RMK AO2 SLP090 T02220183
KMDT 160056Z 18009KT 10SM FEW070 SCT100 22/18 A2980 RMK AO2 SLP090 T02170183
KMDT 152356Z 19010KT 10SM FEW250 22/18 A2981 RMK AO2 SLP095 T02220183 10250 20222 55009
KMDT 152256Z 16010KT 10SM CLR 22/18 A2980 RMK AO2 SLP091 T02220183
KMDT 152156Z 18011KT 10SM CLR 24/18 A2982 RMK AO2 SLP097 T02390178
KMDT 152056Z 19007KT 10SM CLR 25/18 A2984 RMK AO2 SLP104 T02500178 56027
KMDT 151956Z 19008KT 10SM FEW031 25/18 A2986 RMK AO2 SLP112 T02500178
KMDT 151856Z 20008KT 10SM FEW025 24/18 A2989 RMK AO2 SLP119 T02440178
KMDT 151756Z COR 20008KT 10SM SCT021 24/17 A2992 RMK AO2 SLP131 T02390172 10239 20172 56025
KMDT 151751Z VRB05KT 10SM SCT021 24/18 A2993 RMK AO2
KMDT 151740Z 00000KT 10SM BKN021 23/17 A2993 RMK AO2 T02330172
KMDT 151656Z COR 22004KT 3SM BKN016 22/17 A2996 RMK AO2 SFC VIS 10 SLP146 T02170172
KMDT 151617Z VRB03KT 3SM OVC015 21/17 A2999 RMK AO2 SFC VIS 10 BINOVC T02060167
KMDT 151556Z VRB05KT 3SM OVC013 19/17 A3000 RMK AO2 SFC VIS 10 SLP158 T01940167
KMDT 151525Z 27005KT 3SM OVC011 19/17 A3002 RMK AO2 SFC VIS 10 T01890167
KMDT 151456Z 18009KT 3SM OVC009 18/17 A3003 RMK AO2 SFC VIS 10 SLP168 T01830167 58011
KMDT 151356Z 17006KT 3SM BR OVC006 18/17 A3005 RMK AO2 SFC VIS 6 SLP174 T01780167
KMDT 151256Z VRB03KT 3SM BR OVC006 17/17 A3007 RMK AO2 SFC VIS 5 SLP181 T01720167
KMDT 151216Z VRB03KT 3SM BR OVC006 17/16 A3007 RMK AO2 T01720161
KMDT 151156Z 00000KT 2 1/2SM BR OVC006 17/17 A3006 RMK AO2 SLP180 T01720167 10178 20167 55009